sensor_id;sensor_type;location;lat;lon;timestamp;pressure;altitude;pressure_sealevel;temperature;humidity
53689;BME280;39583;54.682;30.662;2022-09-11T06:53:31;99043.72;;;9.81;100.00
53689;BME280;39583;54.682;30.662;2022-09-11T06:56:05;99043.94;;;9.98;100.00
53689;BME280;39583;54.682;30.662;2022-09-11T06:58:33;99053.72;;;10.11;99.63
53689;BME280;39583;54.682;30.662;2022-09-11T07:01:05;99048.84;;;10.19;98.70
53689;BME280;39583;54.682;30.662;2022-09-11T07:03:33;99048.78;;;10.26;97.80
53689;BME280;39583;54.682;30.662;2022-09-11T07:06:02;99041.69;;;10.31;97.26
53689;BME280;39583;54.682;30.662;2022-09-11T07:08:28;99046.34;;;10.36;96.88
53689;BME280;39583;54.682;30.662;2022-09-11T07:11:01;99050.03;;;10.42;96.64
53689;BME280;39583;54.682;30.662;2022-09-11T07:13:31;99040.09;;;10.42;96.35
53689;BME280;39583;54.682;30.662;2022-09-11T07:16:01;99047.22;;;10.48;96.06
53689;BME280;39583;54.682;30.662;2022-09-11T07:18:35;99043.25;;;10.51;95.67
53689;BME280;39583;54.682;30.662;2022-09-11T07:21:09;99043.00;;;10.52;95.50
53689;BME280;39583;54.682;30.662;2022-09-11T07:23:39;99041.84;;;10.48;95.03
53689;BME280;39583;54.682;30.662;2022-09-11T07:26:09;99043.72;;;10.48;94.89
53689;BME280;39583;54.682;30.662;2022-09-11T07:28:36;99040.91;;;10.43;94.82
53689;BME280;39583;54.682;30.662;2022-09-11T07:33:32;99037.97;;;10.44;94.47
53689;BME280;39583;54.682;30.662;2022-09-11T07:36:11;99041.59;;;10.50;94.52
53689;BME280;39583;54.682;30.662;2022-09-11T07:38:41;99025.81;;;10.53;94.73
53689;BME280;39583;54.682;30.662;2022-09-11T07:41:09;99038.13;;;10.61;94.71
53689;BME280;39583;54.682;30.662;2022-09-11T07:43:38;99031.22;;;10.65;94.36
53689;BME280;39583;54.682;30.662;2022-09-11T07:46:05;99025.41;;;10.68;94.27
53689;BME280;39583;54.682;30.662;2022-09-11T07:48:33;99038.16;;;10.73;93.92
53689;BME280;39583;54.682;30.662;2022-09-11T07:51:04;99027.28;;;10.79;94.00
53689;BME280;39583;54.682;30.662;2022-09-11T07:53:35;99031.41;;;10.82;93.86
53689;BME280;39583;54.682;30.662;2022-09-11T07:56:05;99027.88;;;10.81;93.51
53689;BME280;39583;54.682;30.662;2022-09-11T07:58:33;99038.88;;;10.80;93.39
53689;BME280;39583;54.682;30.662;2022-09-11T08:01:01;99024.13;;;10.71;92.87
53689;BME280;39583;54.682;30.662;2022-09-11T08:03:31;99015.81;;;10.72;93.14
53689;BME280;39583;54.682;30.662;2022-09-11T08:05:58;99029.34;;;10.66;92.85
53689;BME280;39583;54.682;30.662;2022-09-11T08:08:25;99019.78;;;10.70;93.23
53689;BME280;39583;54.682;30.662;2022-09-11T08:10:55;99016.47;;;10.68;93.20
53689;BME280;39583;54.682;30.662;2022-09-11T08:13:21;99018.00;;;10.63;93.16
53689;BME280;39583;54.682;30.662;2022-09-11T08:15:51;99016.94;;;10.64;93.41
53689;BME280;39583;54.682;30.662;2022-09-11T08:18:19;99020.03;;;10.68;93.29
53689;BME280;39583;54.682;30.662;2022-09-11T08:20:45;99015.66;;;10.67;93.30
53689;BME280;39583;54.682;30.662;2022-09-11T08:23:12;99016.84;;;10.71;93.22
53689;BME280;39583;54.682;30.662;2022-09-11T08:25:40;99006.66;;;10.73;93.11
53689;BME280;39583;54.682;30.662;2022-09-11T08:28:07;99012.88;;;10.74;92.99
53689;BME280;39583;54.682;30.662;2022-09-11T08:30:34;99000.44;;;10.61;92.85
53689;BME280;39583;54.682;30.662;2022-09-11T08:33:05;98997.97;;;10.59;92.92
53689;BME280;39583;54.682;30.662;2022-09-11T08:35:34;99022.47;;;10.70;92.72
53689;BME280;39583;54.682;30.662;2022-09-11T08:38:01;99014.97;;;10.72;93.02
53689;BME280;39583;54.682;30.662;2022-09-11T08:40:29;99018.50;;;10.72;92.70
53689;BME280;39583;54.682;30.662;2022-09-11T08:43:01;99009.13;;;10.75;92.65
53689;BME280;39583;54.682;30.662;2022-09-11T08:45:33;99007.97;;;10.71;92.87
53689;BME280;39583;54.682;30.662;2022-09-11T08:48:00;99021.06;;;10.79;92.66
53689;BME280;39583;54.682;30.662;2022-09-11T08:50:42;99019.66;;;10.76;92.34
53689;BME280;39583;54.682;30.662;2022-09-11T08:53:14;99013.81;;;10.79;92.52
53689;BME280;39583;54.682;30.662;2022-09-11T08:55:45;99012.91;;;10.85;92.74
53689;BME280;39583;54.682;30.662;2022-09-11T08:58:21;99011.38;;;10.89;92.38
53689;BME280;39583;54.682;30.662;2022-09-11T09:01:27;99015.94;;;10.89;92.14
53689;BME280;39583;54.682;30.662;2022-09-11T09:09:02;99009.84;;;10.93;92.00
53689;BME280;39583;54.682;30.662;2022-09-11T09:14:28;99005.88;;;11.19;92.20
53689;BME280;39583;54.682;30.662;2022-09-11T09:17:11;99011.88;;;11.10;91.38
53689;BME280;39583;54.682;30.662;2022-09-11T09:19:57;99011.97;;;11.03;91.33
53689;BME280;39583;54.682;30.662;2022-09-11T09:23:30;99010.09;;;11.04;91.79
53689;BME280;39583;54.682;30.662;2022-09-11T09:25:39;99025.31;;;10.98;91.55
53689;BME280;39583;54.682;30.662;2022-09-11T09:31:00;99015.25;;;11.05;91.72
53689;BME280;39583;54.682;30.662;2022-09-11T09:33:46;98996.03;;;11.02;91.91
53689;BME280;39583;54.682;30.662;2022-09-11T09:36:20;99021.44;;;11.17;91.79
53689;BME280;39583;54.682;30.662;2022-09-11T09:38:51;99003.78;;;11.10;91.61
53689;BME280;39583;54.682;30.662;2022-09-11T09:44:22;99023.94;;;11.07;91.39
53689;BME280;39583;54.682;30.662;2022-09-11T09:46:54;99026.16;;;11.10;91.71
53689;BME280;39583;54.682;30.662;2022-09-11T09:49:29;99028.97;;;11.15;91.41
53689;BME280;39583;54.682;30.662;2022-09-11T09:51:58;99017.84;;;11.12;91.68
53689;BME280;39583;54.682;30.662;2022-09-11T09:54:29;99020.19;;;11.08;91.63
53689;BME280;39583;54.682;30.662;2022-09-11T09:57:07;99019.69;;;11.00;91.38
53689;BME280;39583;54.682;30.662;2022-09-11T10:00:04;99026.97;;;10.99;91.77
53689;BME280;39583;54.682;30.662;2022-09-11T10:05:16;99008.00;;;10.94;92.07
53689;BME280;39583;54.682;30.662;2022-09-11T10:07:48;99019.00;;;11.04;91.88
53689;BME280;39583;54.682;30.662;2022-09-11T10:10:28;99023.44;;;10.99;91.85
53689;BME280;39583;54.682;30.662;2022-09-11T10:13:00;99021.59;;;11.11;92.24
53689;BME280;39583;54.682;30.662;2022-09-11T10:15:28;99017.69;;;11.18;92.08
53689;BME280;39583;54.682;30.662;2022-09-11T10:26:18;99021.81;;;11.21;91.42
53689;BME280;39583;54.682;30.662;2022-09-11T10:28:46;99031.88;;;11.26;91.65
53689;BME280;39583;54.682;30.662;2022-09-11T10:31:14;99023.31;;;11.29;91.73
53689;BME280;39583;54.682;30.662;2022-09-11T10:33:55;99021.78;;;11.33;91.81
53689;BME280;39583;54.682;30.662;2022-09-11T10:36:25;99030.25;;;11.48;91.99
53689;BME280;39583;54.682;30.662;2022-09-11T10:38:52;99029.03;;;11.56;91.54
53689;BME280;39583;54.682;30.662;2022-09-11T10:41:23;99030.56;;;11.63;91.37
53689;BME280;39583;54.682;30.662;2022-09-11T10:44:05;99037.03;;;11.62;90.96
53689;BME280;39583;54.682;30.662;2022-09-11T10:46:37;99036.78;;;11.52;90.71
53689;BME280;39583;54.682;30.662;2022-09-11T10:51:32;99023.31;;;11.64;91.19
53689;BME280;39583;54.682;30.662;2022-09-11T10:59:34;99042.53;;;11.56;91.32
53689;BME280;39583;54.682;30.662;2022-09-11T11:02:19;99037.03;;;11.62;91.36
53689;BME280;39583;54.682;30.662;2022-09-11T11:04:46;99023.53;;;11.62;91.14
53689;BME280;39583;54.682;30.662;2022-09-11T11:07:27;99032.22;;;11.64;90.79
53689;BME280;39583;54.682;30.662;2022-09-11T11:10:06;99026.09;;;11.57;90.89
53689;BME280;39583;54.682;30.662;2022-09-11T11:15:34;99029.19;;;11.49;90.95
53689;BME280;39583;54.682;30.662;2022-09-11T11:20:50;99022.66;;;11.33;91.01
53689;BME280;39583;54.682;30.662;2022-09-11T11:23:36;99022.84;;;11.32;90.72
53689;BME280;39583;54.682;30.662;2022-09-11T11:28:55;99026.38;;;11.32;91.07
53689;BME280;39583;54.682;30.662;2022-09-11T11:34:37;99030.94;;;11.32;91.21
53689;BME280;39583;54.682;30.662;2022-09-11T11:37:13;99022.84;;;11.32;91.00
53689;BME280;39583;54.682;30.662;2022-09-11T11:39:58;99029.53;;;11.29;90.80
53689;BME280;39583;54.682;30.662;2022-09-11T11:47:47;99029.88;;;11.33;90.87
53689;BME280;39583;54.682;30.662;2022-09-11T11:50:45;99020.06;;;11.27;90.37
53689;BME280;39583;54.682;30.662;2022-09-11T11:56:24;99030.59;;;11.28;90.65
53689;BME280;39583;54.682;30.662;2022-09-11T11:59:03;99019.09;;;11.33;90.63
53689;BME280;39583;54.682;30.662;2022-09-11T12:01:43;99025.34;;;11.33;90.28
53689;BME280;39583;54.682;30.662;2022-09-11T12:07:03;99030.34;;;11.30;90.36
53689;BME280;39583;54.682;30.662;2022-09-11T12:09:30;99025.09;;;11.23;90.26
53689;BME280;39583;54.682;30.662;2022-09-11T12:12:03;99018.75;;;11.17;90.31
53689;BME280;39583;54.682;30.662;2022-09-11T12:14:31;99019.34;;;11.19;90.37
53689;BME280;39583;54.682;30.662;2022-09-11T12:17:37;99028.38;;;11.25;90.45
53689;BME280;39583;54.682;30.662;2022-09-11T12:20:12;99029.44;;;11.24;90.08
53689;BME280;39583;54.682;30.662;2022-09-11T12:32:46;99025.91;;;11.23;89.85
53689;BME280;39583;54.682;30.662;2022-09-11T12:35:32;99021.81;;;11.21;89.86
53689;BME280;39583;54.682;30.662;2022-09-11T12:40:58;99015.72;;;11.26;90.30
53689;BME280;39583;54.682;30.662;2022-09-11T12:46:07;99019.09;;;11.33;89.95
53689;BME280;39583;54.682;30.662;2022-09-11T12:48:43;99004.59;;;11.22;89.79
53689;BME280;39583;54.682;30.662;2022-09-11T12:51:27;99021.44;;;11.17;89.45
53689;BME280;39583;54.682;30.662;2022-09-11T12:53:59;99019.22;;;11.03;89.60
53689;BME280;39583;54.682;30.662;2022-09-11T12:56:30;99025.19;;;11.05;89.74
53689;BME280;39583;54.682;30.662;2022-09-11T12:59:00;99030.13;;;11.08;90.39
53689;BME280;39583;54.682;30.662;2022-09-11T13:01:43;99030.00;;;11.14;90.40
53689;BME280;39583;54.682;30.662;2022-09-11T13:06:50;99018.91;;;11.22;90.05
53689;BME280;39583;54.682;30.662;2022-09-11T13:11:55;99018.66;;;11.12;89.88
53689;BME280;39583;54.682;30.662;2022-09-11T13:17:01;99019.56;;;11.06;90.12
53689;BME280;39583;54.682;30.662;2022-09-11T13:19:32;99021.09;;;11.02;89.91
53689;BME280;39583;54.682;30.662;2022-09-11T13:21:59;99014.31;;;11.00;90.09
53689;BME280;39583;54.682;30.662;2022-09-11T13:24:28;99015.94;;;11.01;90.09
53689;BME280;39583;54.682;30.662;2022-09-11T13:27:01;99015.47;;;11.04;90.14
53689;BME280;39583;54.682;30.662;2022-09-11T13:29:30;99017.94;;;11.05;89.88
53689;BME280;39583;54.682;30.662;2022-09-11T13:31:59;99021.09;;;11.02;89.86
53689;BME280;39583;54.682;30.662;2022-09-11T13:34:30;99031.06;;;11.02;89.96
53689;BME280;39583;54.682;30.662;2022-09-11T13:37:07;99016.53;;;11.03;89.99
53689;BME280;39583;54.682;30.662;2022-09-11T13:39:39;99028.25;;;11.08;90.05
53689;BME280;39583;54.682;30.662;2022-09-11T13:42:13;99019.38;;;11.08;89.90
53689;BME280;39583;54.682;30.662;2022-09-11T13:44:44;99018.31;;;11.09;90.03
53689;BME280;39583;54.682;30.662;2022-09-11T13:47:19;99017.25;;;11.10;89.87
53689;BME280;39583;54.682;30.662;2022-09-11T13:49:49;99019.94;;;11.10;89.76
53689;BME280;39583;54.682;30.662;2022-09-11T13:52:17;99025.19;;;11.05;89.67
53689;BME280;39583;54.682;30.662;2022-09-11T13:54:49;99016.53;;;11.03;89.92
53689;BME280;39583;54.682;30.662;2022-09-11T13:57:19;99022.97;;;11.02;90.04
53689;BME280;39583;54.682;30.662;2022-09-11T13:59:56;99028.84;;;10.99;89.97
53689;BME280;39583;54.682;30.662;2022-09-11T14:07:44;99021.69;;;11.04;89.90
53689;BME280;39583;54.682;30.662;2022-09-11T14:10:21;99019.34;;;10.96;89.84
53689;BME280;39583;54.682;30.662;2022-09-11T14:15:41;99022.03;;;10.84;89.92
53689;BME280;39583;54.682;30.662;2022-09-11T14:18:20;99015.81;;;10.72;89.88
53689;BME280;39583;54.682;30.662;2022-09-11T14:20:49;99027.50;;;10.78;90.12
53689;BME280;39583;54.682;30.662;2022-09-11T14:23:21;99032.31;;;10.76;90.20
53689;BME280;39583;54.682;30.662;2022-09-11T14:31:41;99017.53;;;10.67;90.26
53689;BME280;39583;54.682;30.662;2022-09-11T14:34:15;99018.34;;;10.67;90.13
53689;BME280;39583;54.682;30.662;2022-09-11T14:36:50;99017.75;;;10.65;90.50
53689;BME280;39583;54.682;30.662;2022-09-11T14:39:32;99024.66;;;10.61;90.12
53689;BME280;39583;54.682;30.662;2022-09-11T14:42:06;99021.16;;;10.60;90.04
53689;BME280;39583;54.682;30.662;2022-09-11T14:44:34;99018.13;;;10.57;90.14
53689;BME280;39583;54.682;30.662;2022-09-11T14:47:02;99012.59;;;10.52;90.13
53689;BME280;39583;54.682;30.662;2022-09-11T14:49:29;99012.81;;;10.50;90.44
53689;BME280;39583;54.682;30.662;2022-09-11T14:51:57;99014.34;;;10.46;90.48
53689;BME280;39583;54.682;30.662;2022-09-11T14:54:26;99021.34;;;10.47;90.57
53689;BME280;39583;54.682;30.662;2022-09-11T14:56:59;99018.19;;;10.50;90.61
53689;BME280;39583;54.682;30.662;2022-09-11T14:59:26;99018.66;;;10.47;90.46
53689;BME280;39583;54.682;30.662;2022-09-11T15:01:56;99020.53;;;10.47;90.60
53689;BME280;39583;54.682;30.662;2022-09-11T15:04:23;99021.34;;;10.47;90.68
53689;BME280;39583;54.682;30.662;2022-09-11T15:06:51;99025.34;;;10.45;90.54
53689;BME280;39583;54.682;30.662;2022-09-11T15:09:18;99019.97;;;10.45;90.77
53689;BME280;39583;54.682;30.662;2022-09-11T15:11:44;99020.31;;;10.48;90.60
53689;BME280;39583;54.682;30.662;2022-09-11T15:14:11;99021.00;;;10.44;90.31
53689;BME280;39583;54.682;30.662;2022-09-11T15:16:40;99009.38;;;10.31;90.43
53689;BME280;39583;54.682;30.662;2022-09-11T15:19:08;99012.44;;;10.35;90.50
53689;BME280;39583;54.682;30.662;2022-09-11T15:21:35;99002.78;;;10.27;90.49
53689;BME280;39583;54.682;30.662;2022-09-11T15:24:01;99021.91;;;10.38;90.68
53689;BME280;39583;54.682;30.662;2022-09-11T15:26:31;99018.63;;;10.36;90.55
53689;BME280;39583;54.682;30.662;2022-09-11T15:28:58;99019.91;;;10.33;90.73
53689;BME280;39583;54.682;30.662;2022-09-11T15:31:27;99015.59;;;10.32;90.69
53689;BME280;39583;54.682;30.662;2022-09-11T15:33:54;98996.31;;;10.17;90.68
53689;BME280;39583;54.682;30.662;2022-09-11T15:36:22;99017.31;;;10.26;90.44
53689;BME280;39583;54.682;30.662;2022-09-11T15:38:52;99014.50;;;10.21;90.28
53689;BME280;39583;54.682;30.662;2022-09-11T15:41:22;99015.31;;;10.22;90.54
53689;BME280;39583;54.682;30.662;2022-09-11T15:43:51;99011.34;;;10.24;90.83
53689;BME280;39583;54.682;30.662;2022-09-11T15:46:19;99012.97;;;10.25;90.73
53689;BME280;39583;54.682;30.662;2022-09-11T15:48:46;99020.59;;;10.28;90.61
53689;BME280;39583;54.682;30.662;2022-09-11T15:51:21;99024.13;;;10.29;90.72
53689;BME280;39583;54.682;30.662;2022-09-11T15:53:50;99021.63;;;10.27;90.52
53689;BME280;39583;54.682;30.662;2022-09-11T15:56:19;99017.31;;;10.26;90.60
53689;BME280;39583;54.682;30.662;2022-09-11T15:58:46;99018.94;;;10.27;90.73
53689;BME280;39583;54.682;30.662;2022-09-11T16:03:50;99026.19;;;10.27;90.84
53689;BME280;39583;54.682;30.662;2022-09-11T16:06:18;99017.75;;;10.23;90.42
53689;BME280;39583;54.682;30.662;2022-09-11T16:08:45;99004.09;;;10.07;90.71
53689;BME280;39583;54.682;30.662;2022-09-11T16:11:14;99022.16;;;10.18;90.80
53689;BME280;39583;54.682;30.662;2022-09-11T16:13:47;99023.41;;;10.15;90.77
53689;BME280;39583;54.682;30.662;2022-09-11T16:16:15;99023.66;;;10.14;90.84
53689;BME280;39583;54.682;30.662;2022-09-11T16:18:43;99016.41;;;10.14;90.91
53689;BME280;39583;54.682;30.662;2022-09-11T16:21:12;99020.72;;;10.15;90.92
53689;BME280;39583;54.682;30.662;2022-09-11T16:23:40;99022.41;;;10.16;90.93
53689;BME280;39583;54.682;30.662;2022-09-11T16:26:14;99032.94;;;10.18;91.09
53689;BME280;39583;54.682;30.662;2022-09-11T16:28:45;99022.00;;;10.13;90.97
53689;BME280;39583;54.682;30.662;2022-09-11T16:31:13;99021.19;;;10.12;90.91
53689;BME280;39583;54.682;30.662;2022-09-11T16:33:42;99030.53;;;10.10;91.01
53689;BME280;39583;54.682;30.662;2022-09-11T16:36:18;99032.19;;;10.11;90.99
53689;BME280;39583;54.682;30.662;2022-09-11T16:38:47;99029.50;;;10.11;91.13
53689;BME280;39583;54.682;30.662;2022-09-11T16:41:17;99029.50;;;10.11;91.03
53689;BME280;39583;54.682;30.662;2022-09-11T16:43:48;99035.69;;;10.11;91.11
53689;BME280;39583;54.682;30.662;2022-09-11T16:46:19;99031.38;;;10.10;91.02
53689;BME280;39583;54.682;30.662;2022-09-11T16:48:49;99036.16;;;10.08;91.03
53689;BME280;39583;54.682;30.662;2022-09-11T16:51:18;99034.75;;;10.05;91.05
53689;BME280;39583;54.682;30.662;2022-09-11T16:53:45;99033.09;;;10.04;91.19
53689;BME280;39583;54.682;30.662;2022-09-11T16:56:15;99038.50;;;10.04;91.13
53689;BME280;39583;54.682;30.662;2022-09-11T16:58:42;99030.66;;;10.03;91.21
53689;BME280;39583;54.682;30.662;2022-09-11T17:01:11;99036.47;;;10.00;91.01
53689;BME280;39583;54.682;30.662;2022-09-11T17:03:41;99035.63;;;9.99;91.32
53689;BME280;39583;54.682;30.662;2022-09-11T17:06:08;99041.25;;;9.98;91.32
53689;BME280;39583;54.682;30.662;2022-09-11T17:08:35;99038.78;;;9.96;91.33
53689;BME280;39583;54.682;30.662;2022-09-11T17:11:06;99041.47;;;9.96;91.33
53689;BME280;39583;54.682;30.662;2022-09-11T17:13:35;99042.28;;;9.97;91.15
53689;BME280;39583;54.682;30.662;2022-09-11T17:16:04;99038.19;;;9.94;91.41
53689;BME280;39583;54.682;30.662;2022-09-11T17:18:32;99033.88;;;9.93;91.47
53689;BME280;39583;54.682;30.662;2022-09-11T17:21:04;99036.56;;;9.93;91.31
53689;BME280;39583;54.682;30.662;2022-09-11T17:23:32;99042.97;;;9.92;91.28
53689;BME280;39583;54.682;30.662;2022-09-11T17:25:59;99037.97;;;9.96;91.53
53689;BME280;39583;54.682;30.662;2022-09-11T17:28:30;99036.09;;;9.96;91.21
53689;BME280;39583;54.682;30.662;2022-09-11T17:31:04;99016.16;;;9.86;91.32
53689;BME280;39583;54.682;30.662;2022-09-11T17:33:33;99028.94;;;9.90;91.28
53689;BME280;39583;54.682;30.662;2022-09-11T17:36:02;99034.09;;;9.92;91.40
53689;BME280;39583;54.682;30.662;2022-09-11T17:38:31;99027.66;;;9.93;91.40
53689;BME280;39583;54.682;30.662;2022-09-11T17:41:02;99035.50;;;9.94;91.42
53689;BME280;39583;54.682;30.662;2022-09-11T17:43:30;99028.25;;;9.95;91.42
53689;BME280;39583;54.682;30.662;2022-09-11T17:48:54;99029.91;;;9.96;91.33
53689;BME280;39583;54.682;30.662;2022-09-11T17:51:23;99030.13;;;9.94;91.26
53689;BME280;39583;54.682;30.662;2022-09-11T17:53:56;99029.06;;;9.95;91.37
53689;BME280;39583;54.682;30.662;2022-09-11T17:56:27;99020.25;;;9.88;91.12
53689;BME280;39583;54.682;30.662;2022-09-11T17:58:57;99026.63;;;9.94;91.31
53689;BME280;39583;54.682;30.662;2022-09-11T18:01:27;99027.22;;;9.96;91.44
53689;BME280;39583;54.682;30.662;2022-09-11T18:03:56;99028.03;;;9.96;91.33
53689;BME280;39583;54.682;30.662;2022-09-11T18:06:28;99026.63;;;9.94;91.29
53689;BME280;39583;54.682;30.662;2022-09-11T18:08:58;99024.97;;;9.93;91.27
53689;BME280;39583;54.682;30.662;2022-09-11T18:11:30;99019.59;;;9.93;91.37
53689;BME280;39583;54.682;30.662;2022-09-11T18:13:58;99009.38;;;9.83;91.31
53689;BME280;39583;54.682;30.662;2022-09-11T18:16:25;99018.38;;;9.89;91.22
53689;BME280;39583;54.682;30.662;2022-09-11T18:18:52;99011.59;;;9.86;91.19
53689;BME280;39583;54.682;30.662;2022-09-11T18:21:21;99009.81;;;9.80;91.18
53689;BME280;39583;54.682;30.662;2022-09-11T18:23:48;99020.47;;;9.87;91.15
53689;BME280;39583;54.682;30.662;2022-09-11T18:26:26;99015.94;;;9.87;91.19
53689;BME280;39583;54.682;30.662;2022-09-11T18:29:01;99017.56;;;9.88;90.94
53689;BME280;39583;54.682;30.662;2022-09-11T18:31:29;99003.19;;;9.83;91.03
53689;BME280;39583;54.682;30.662;2022-09-11T18:33:59;99014.06;;;9.88;91.22
53689;BME280;39583;54.682;30.662;2022-09-11T18:36:28;99015.69;;;9.89;91.09
